Time;durP1;ratioP1;P1;durP2;ratioP2;P2;SDS_P1;SDS_P2;PMS_P1;PMS_P2;Temp;Humidity;BMP_temperature;BMP_pressure;BME280_temperature;BME280_humidity;BME280_pressure;Samples;Min_cycle;Max_cycle;Signal;HPM_P1;HPM_P2
2023/12/10 00:00:40;;;;;;;12.70;5.00;;;;;;;9.83;100.00;99275.75;5054914;28;20392;-76
2023/12/10 00:03:05;;;;;;;10.33;4.40;;;;;;;9.80;100.00;99278.41;5050433;28;20657;-76
2023/12/10 00:05:30;;;;;;;18.97;5.10;;;;;;;9.81;100.00;99293.03;5052636;28;20190;-75
2023/12/10 00:07:56;;;;;;;11.90;4.20;;;;;;;9.79;100.00;99299.09;5048620;28;20193;-76
2023/12/10 00:10:21;;;;;;;11.40;4.53;;;;;;;9.76;100.00;99306.03;5056222;28;20755;-76
2023/12/10 00:12:46;;;;;;;14.30;5.37;;;;;;;9.77;100.00;99297.41;5054966;28;20251;-76
2023/12/10 00:15:12;;;;;;;13.70;5.13;;;;;;;9.75;100.00;99299.19;5055930;28;20190;-76
2023/12/10 00:17:37;;;;;;;15.70;4.97;;;;;;;9.76;100.00;99305.19;5055357;28;20792;-75
2023/12/10 00:20:03;;;;;;;14.43;4.63;;;;;;;9.74;100.00;99310.41;5053372;28;20211;-76
2023/12/10 00:22:28;;;;;;;18.90;6.00;;;;;;;9.75;100.00;99311.25;5051365;28;20190;-75
2023/12/10 00:24:54;;;;;;;14.67;4.70;;;;;;;9.75;100.00;99313.81;5056786;28;20202;-76
2023/12/10 00:27:19;;;;;;;21.00;6.07;;;;;;;9.76;100.00;99310.38;5055450;28;20201;-76
2023/12/10 00:29:44;;;;;;;15.13;5.27;;;;;;;9.81;100.00;99318.00;5050944;28;20194;-77
2023/12/10 00:32:10;;;;;;;17.63;5.20;;;;;;;9.76;100.00;99320.69;5051691;28;20186;-77
2023/12/10 00:34:35;;;;;;;16.77;5.33;;;;;;;9.74;100.00;99325.03;5054416;28;20673;-76
2023/12/10 00:37:01;;;;;;;17.47;6.10;;;;;;;9.69;100.00;99338.06;5057255;28;20963;-76
2023/12/10 00:39:26;;;;;;;19.13;6.17;;;;;;;9.69;100.00;99339.78;5057114;28;20684;-76
2023/12/10 00:41:51;;;;;;;16.17;5.73;;;;;;;9.67;100.00;99349.31;5055555;28;21875;-76
2023/12/10 00:44:16;;;;;;;16.40;5.40;;;;;;;9.63;100.00;99356.25;5054517;28;20940;-76
2023/12/10 00:46:42;;;;;;;17.40;5.87;;;;;;;9.64;100.00;99368.28;5052028;28;20182;-76
2023/12/10 00:49:08;;;;;;;21.17;6.70;;;;;;;9.66;100.00;99361.38;5059916;28;20185;-76
2023/12/10 00:51:33;;;;;;;18.00;5.60;;;;;;;9.67;100.00;99362.25;5058785;28;20281;-76
2023/12/10 00:53:59;;;;;;;15.27;5.70;;;;;;;9.66;100.00;99368.28;5057591;28;20206;-76
2023/12/10 00:56:24;;;;;;;16.77;5.77;;;;;;;9.67;100.00;99391.50;5056851;28;20564;-76
2023/12/10 00:58:49;;;;;;;18.40;6.13;;;;;;;9.71;100.00;99381.94;5059912;28;20549;-76
2023/12/10 01:01:15;;;;;;;19.30;6.50;;;;;;;9.75;100.00;99399.97;5060906;28;20251;-76
2023/12/10 01:03:40;;;;;;;19.70;6.13;;;;;;;9.75;100.00;99402.53;5052607;28;20213;-77
2023/12/10 01:06:06;;;;;;;16.63;5.80;;;;;;;9.79;100.00;99398.16;5057183;28;20212;-75
2023/12/10 01:08:32;;;;;;;16.60;5.97;;;;;;;9.81;100.00;99400.69;5056849;28;20177;-76
2023/12/10 01:11:00;;;;;;;17.47;6.90;;;;;;;9.80;100.00;99399.00;5056774;28;20206;-76
2023/12/10 01:13:26;;;;;;;21.63;6.23;;;;;;;9.77;100.00;99408.50;5059109;28;20826;-76
2023/12/10 01:15:52;;;;;;;16.60;5.20;;;;;;;9.80;100.00;99411.91;5058851;28;20197;-76
2023/12/10 01:18:17;;;;;;;16.97;6.33;;;;;;;9.79;100.00;99424.00;5057377;28;20200;-76
2023/12/10 01:20:42;;;;;;;17.87;6.33;;;;;;;9.74;100.00;99421.50;5057486;28;20205;-76
2023/12/10 01:23:08;;;;;;;20.30;5.87;;;;;;;9.75;100.00;99410.28;5056227;28;20206;-77
2023/12/10 01:25:34;;;;;;;15.70;6.13;;;;;;;9.75;100.00;99412.88;5057009;28;20182;-75
2023/12/10 01:28:00;;;;;;;14.67;5.57;;;;;;;9.77;100.00;99415.41;5050612;28;20187;-76
2023/12/10 01:30:25;;;;;;;18.20;5.77;;;;;;;9.76;100.00;99411.97;5055458;28;20700;-76
2023/12/10 01:32:56;;;;;;;19.17;5.40;;;;;;;9.77;100.00;99418.00;5053467;28;20191;-76
2023/12/10 01:35:22;;;;;;;17.10;6.10;;;;;;;9.81;100.00;99424.81;5055464;28;20214;-76
2023/12/10 01:37:47;;;;;;;16.80;5.60;;;;;;;9.79;100.00;99438.63;5058505;28;20737;-74
2023/12/10 01:40:13;;;;;;;19.03;6.40;;;;;;;9.81;100.00;99437.75;5057270;28;20234;-77
2023/12/10 01:42:40;;;;;;;19.20;5.90;;;;;;;9.83;100.00;99437.69;5055364;28;20183;-77
2023/12/10 01:45:05;;;;;;;21.80;5.97;;;;;;;9.83;100.00;99435.97;5059115;28;20482;-75
2023/12/10 01:47:34;;;;;;;14.53;5.13;;;;;;;9.81;100.00;99445.50;5055219;28;20827;-76
2023/12/10 01:50:04;;;;;;;19.50;6.20;;;;;;;9.81;100.00;99453.25;5057112;28;20282;-76
2023/12/10 01:52:31;;;;;;;14.97;5.23;;;;;;;9.83;100.00;99471.28;5051965;28;20316;-77
2023/12/10 01:54:58;;;;;;;14.53;5.07;;;;;;;9.85;100.00;99485.03;5056253;28;20662;-76
2023/12/10 01:57:24;;;;;;;14.80;4.40;;;;;;;9.85;100.00;99491.06;5052432;28;20193;-76
2023/12/10 01:59:50;;;;;;;17.57;5.50;;;;;;;9.85;100.00;99495.38;5053090;28;20186;-76
2023/12/10 02:02:16;;;;;;;15.40;5.10;;;;;;;9.82;100.00;99513.53;5052980;28;20928;-74
2023/12/10 02:04:41;;;;;;;11.37;4.33;;;;;;;9.74;100.00;99519.69;5053469;28;20213;-76
2023/12/10 02:07:07;;;;;;;10.17;3.87;;;;;;;9.68;100.00;99513.78;5054612;28;20190;-76
2023/12/10 02:09:32;;;;;;;14.90;4.60;;;;;;;9.61;100.00;99519.06;5054436;28;20214;-75
2023/12/10 02:11:57;;;;;;;8.33;3.43;;;;;;;9.55;100.00;99529.47;5055438;28;20218;-76
2023/12/10 02:14:23;;;;;;;10.37;3.90;;;;;;;9.49;100.00;99529.59;5053202;28;20234;-76
2023/12/10 02:16:48;;;;;;;12.60;4.10;;;;;;;9.42;100.00;99543.47;5054972;28;20224;-75
2023/12/10 02:19:13;;;;;;;11.80;4.40;;;;;;;9.33;100.00;99551.38;5055019;28;20900;-75
2023/12/10 02:21:44;;;;;;;12.80;4.03;;;;;;;9.25;100.00;99559.25;5057333;28;20289;-76
2023/12/10 02:24:11;;;;;;;10.43;4.03;;;;;;;9.16;100.00;99565.41;5057348;28;20230;-77
2023/12/10 02:26:37;;;;;;;10.23;3.60;;;;;;;9.13;100.00;99580.94;5057326;28;20907;-76
2023/12/10 02:29:06;;;;;;;9.87;3.60;;;;;;;9.09;100.00;99568.94;5060213;28;20686;-76
2023/12/10 02:31:31;;;;;;;12.00;4.00;;;;;;;9.06;100.00;99574.16;5056345;28;20177;-76
2023/12/10 02:33:57;;;;;;;9.03;3.37;;;;;;;9.02;100.00;99585.41;5052957;28;20245;-75
2023/12/10 02:36:22;;;;;;;11.63;3.83;;;;;;;8.98;100.00;99590.59;5054436;28;20186;-77
2023/12/10 02:38:49;;;;;;;14.67;4.67;;;;;;;8.93;100.00;99586.38;5056016;28;20670;-76
2023/12/10 02:41:15;;;;;;;14.60;4.73;;;;;;;8.87;100.00;99589.03;5058302;28;20201;-75
2023/12/10 02:43:40;;;;;;;9.40;3.80;;;;;;;8.78;100.00;99590.84;5056286;28;20207;-76
2023/12/10 02:46:05;;;;;;;13.67;4.07;;;;;;;8.77;100.00;99593.47;5057431;28;20182;-76
2023/12/10 02:48:31;;;;;;;13.63;4.30;;;;;;;8.77;100.00;99591.72;5057693;28;20185;-76
2023/12/10 02:50:56;;;;;;;12.03;4.17;;;;;;;8.75;100.00;99590.91;5055204;28;20261;-77
2023/12/10 02:53:21;;;;;;;15.60;5.00;;;;;;;8.76;100.00;99581.44;5052766;28;20235;-76
2023/12/10 02:55:47;;;;;;;11.10;4.77;;;;;;;8.75;100.00;99596.06;5055293;28;20188;-76
2023/12/10 02:58:12;;;;;;;17.80;5.10;;;;;;;8.75;100.00;99588.31;5056920;28;20225;-76
2023/12/10 03:00:38;;;;;;;16.07;5.30;;;;;;;8.78;100.00;99588.28;5053814;28;20692;-76
2023/12/10 03:03:03;;;;;;;13.07;5.00;;;;;;;8.79;100.00;99602.03;5049251;28;20206;-76
2023/12/10 03:05:29;;;;;;;11.80;5.07;;;;;;;8.77;100.00;99607.22;5048896;28;20199;-76
2023/12/10 03:07:54;;;;;;;14.33;4.73;;;;;;;8.80;100.00;99603.72;5055309;28;20204;-76
2023/12/10 03:10:20;;;;;;;20.90;5.50;;;;;;;8.81;100.00;99603.72;5049060;28;20243;-76
2023/12/10 03:12:45;;;;;;;17.03;5.20;;;;;;;8.81;100.00;99610.59;5050531;28;20215;-76
2023/12/10 03:15:11;;;;;;;16.07;4.93;;;;;;;8.78;100.00;99606.34;5053036;28;20189;-76
2023/12/10 03:17:37;;;;;;;18.70;5.27;;;;;;;8.75;100.00;99615.84;5056577;28;20226;-76
2023/12/10 03:20:03;;;;;;;13.57;4.40;;;;;;;8.75;100.00;99618.44;5055776;28;20186;-75
2023/12/10 03:22:29;;;;;;;13.77;4.63;;;;;;;8.79;100.00;99617.50;5052995;28;20194;-76
2023/12/10 03:24:54;;;;;;;15.93;4.83;;;;;;;8.83;100.00;99616.59;5056838;28;21386;-75
2023/12/10 03:27:19;;;;;;;14.67;4.50;;;;;;;8.83;100.00;99616.59;5052369;28;20188;-75
2023/12/10 03:29:45;;;;;;;12.70;4.40;;;;;;;8.88;100.00;99616.53;5053152;28;20901;-76
2023/12/10 03:32:10;;;;;;;13.97;4.43;;;;;;;8.83;100.00;99614.03;5056602;28;20182;-77
2023/12/10 03:34:35;;;;;;;17.00;4.27;;;;;;;8.85;100.00;99625.19;5056757;28;20636;-76
2023/12/10 03:37:01;;;;;;;12.23;3.80;;;;;;;8.80;100.00;99622.66;5051121;28;20852;-76
2023/12/10 03:39:27;;;;;;;16.80;4.30;;;;;;;8.89;100.00;99625.97;5052588;28;20205;-76
2023/12/10 03:41:52;;;;;;;11.73;3.83;;;;;;;8.89;100.00;99633.72;5050941;28;20833;-76
2023/12/10 03:44:18;;;;;;;10.67;4.03;;;;;;;8.86;100.00;99639.78;5052410;28;20248;-75
2023/12/10 03:46:43;;;;;;;11.23;4.00;;;;;;;8.85;100.00;99644.06;5057943;28;20190;-75
2023/12/10 03:49:08;;;;;;;15.73;4.80;;;;;;;8.90;100.00;99638.88;5048644;28;20214;-76
2023/12/10 03:51:34;;;;;;;15.27;4.57;;;;;;;8.92;100.00;99649.19;5054580;28;20184;-76
2023/12/10 03:54:00;;;;;;;20.67;5.07;;;;;;;8.94;100.00;99644.84;5052754;28;20224;-77
2023/12/10 03:56:25;;;;;;;11.90;4.00;;;;;;;8.94;100.00;99655.19;5053764;28;20186;-77
2023/12/10 03:58:51;;;;;;;16.17;5.10;;;;;;;8.99;100.00;99663.72;5053659;28;20185;-75
2023/12/10 04:01:17;;;;;;;10.17;3.53;;;;;;;9.02;100.00;99667.97;5054518;28;20302;-76
2023/12/10 04:03:42;;;;;;;10.87;4.20;;;;;;;9.06;100.00;99677.41;5054953;28;20951;-76
2023/12/10 04:06:08;;;;;;;14.00;4.93;;;;;;;9.07;100.00;99676.53;5058453;28;20197;-75
2023/12/10 04:08:33;;;;;;;10.70;4.00;;;;;;;9.07;100.00;99690.28;5055252;28;20182;-76
2023/12/10 04:10:58;;;;;;;9.67;3.90;;;;;;;9.13;100.00;99699.66;5053435;28;20243;-76
2023/12/10 04:13:24;;;;;;;14.07;5.17;;;;;;;9.16;100.00;99699.63;5054898;28;20580;-76
2023/12/10 04:15:49;;;;;;;10.93;4.20;;;;;;;9.18;100.00;99708.22;5055360;28;20187;-76
2023/12/10 04:18:15;;;;;;;8.80;3.67;;;;;;;9.20;100.00;99714.22;5057783;28;20194;-76
2023/12/10 04:20:43;;;;;;;10.87;4.00;;;;;;;9.14;100.00;99712.56;5055130;28;20596;-76
2023/12/10 04:23:09;;;;;;;13.47;4.30;;;;;;;9.18;100.00;99722.84;5057040;28;20213;-76
2023/12/10 04:25:34;;;;;;;10.03;4.00;;;;;;;9.13;100.00;99726.34;5056552;28;20925;-76
2023/12/10 04:28:00;;;;;;;15.33;4.43;;;;;;;9.08;100.00;99727.25;5056630;28;20250;-75
2023/12/10 04:30:26;;;;;;;11.13;3.97;;;;;;;9.08;100.00;99729.84;5054692;28;20182;-76
2023/12/10 04:32:52;;;;;;;13.10;4.00;;;;;;;9.06;100.00;99732.44;5059407;28;20188;-76
2023/12/10 04:35:18;;;;;;;11.00;3.60;;;;;;;9.08;100.00;99742.75;5057982;28;20197;-76
2023/12/10 04:37:43;;;;;;;18.07;4.70;;;;;;;9.12;100.00;99755.63;5059686;28;20340;-76
2023/12/10 04:40:10;;;;;;;11.37;3.83;;;;;;;9.09;100.00;99750.50;5053394;28;20240;-76
2023/12/10 04:42:36;;;;;;;15.33;4.00;;;;;;;9.13;100.00;99748.72;5057062;28;20228;-75
2023/12/10 04:45:01;;;;;;;11.90;4.03;;;;;;;9.08;100.00;99743.63;5059440;28;20785;-76
2023/12/10 04:47:26;;;;;;;17.27;4.77;;;;;;;9.07;100.00;99754.81;5059191;28;20185;-76
2023/12/10 04:49:52;;;;;;;11.53;4.23;;;;;;;9.09;100.00;99736.72;5058499;28;20183;-76
2023/12/10 04:52:17;;;;;;;13.27;4.30;;;;;;;9.14;100.00;99751.31;5056052;28;20174;-76
2023/12/10 04:54:43;;;;;;;11.60;3.30;;;;;;;9.06;100.00;99752.25;5056837;28;20209;-76
2023/12/10 04:57:08;;;;;;;8.37;3.43;;;;;;;9.08;100.00;99745.31;5061783;28;20182;-76
2023/12/10 04:59:35;;;;;;;14.63;4.40;;;;;;;9.09;100.00;99742.75;5057111;28;20189;-76
2023/12/10 05:02:01;;;;;;;11.73;4.47;;;;;;;9.09;100.00;99752.19;5057283;28;20239;-77
2023/12/10 05:04:26;;;;;;;16.10;4.70;;;;;;;9.12;100.00;99754.75;5053996;28;20582;-76
2023/12/10 05:06:52;;;;;;;11.67;3.93;;;;;;;9.09;100.00;99759.94;5060031;28;20492;-77
2023/12/10 05:09:17;;;;;;;13.40;4.67;;;;;;;9.12;100.00;99745.28;5063477;28;20193;-76
2023/12/10 05:11:42;;;;;;;12.50;4.23;;;;;;;9.11;100.00;99769.41;5059886;28;20182;-77
2023/12/10 05:14:08;;;;;;;14.63;4.50;;;;;;;9.11;100.00;99766.81;5055319;28;20720;-75
2023/12/10 05:16:33;;;;;;;11.17;3.80;;;;;;;9.06;100.00;99765.16;5053740;28;20219;-77
2023/12/10 05:18:58;;;;;;;12.77;4.20;;;;;;;9.02;100.00;99773.81;5059319;28;20197;-77
2023/12/10 05:21:24;;;;;;;13.73;4.07;;;;;;;8.98;100.00;99780.72;5056281;28;20206;-76
2023/12/10 05:23:49;;;;;;;14.70;4.27;;;;;;;9.00;100.00;99773.81;5057464;28;20205;-76
2023/12/10 05:26:15;;;;;;;12.83;5.73;;;;;;;8.96;100.00;99775.56;5054833;28;20222;-76
2023/12/10 05:28:40;;;;;;;10.10;5.00;;;;;;;8.96;100.00;99777.31;5061690;28;20191;-76
2023/12/10 05:31:05;;;;;;;13.40;4.63;;;;;;;8.99;100.00;99783.28;5059813;28;20216;-76
2023/12/10 05:33:32;;;;;;;13.93;4.23;;;;;;;8.95;100.00;99789.34;5054051;28;20208;-77
2023/12/10 05:35:58;;;;;;;13.40;4.27;;;;;;;8.92;100.00;99794.56;5052622;28;20189;-76
2023/12/10 05:38:23;;;;;;;9.97;3.73;;;;;;;8.91;100.00;99789.41;5058316;28;20310;-75
2023/12/10 05:40:48;;;;;;;9.73;3.67;;;;;;;8.91;100.00;99787.69;5056448;28;20201;-76
2023/12/10 05:43:14;;;;;;;14.20;4.17;;;;;;;8.97;100.00;99794.50;5053271;28;21163;-75
2023/12/10 05:45:39;;;;;;;13.20;4.83;;;;;;;8.93;100.00;99798.81;5059386;28;20178;-76
2023/12/10 05:48:05;;;;;;;15.07;4.17;;;;;;;8.91;100.00;99795.44;5056712;28;20191;-76
2023/12/10 05:50:30;;;;;;;9.87;3.50;;;;;;;8.93;100.00;99806.56;5060244;28;20757;-76
2023/12/10 05:52:55;;;;;;;12.97;4.57;;;;;;;8.93;100.00;99816.88;5056329;28;20204;-76
2023/12/10 05:55:21;;;;;;;12.47;4.47;;;;;;;8.93;100.00;99816.03;5056884;28;20289;-76
2023/12/10 05:57:46;;;;;;;13.87;3.70;;;;;;;8.93;100.00;99834.13;5059696;28;20238;-76
2023/12/10 06:00:12;;;;;;;12.00;4.13;;;;;;;8.96;100.00;99826.34;5062460;28;20185;-77
2023/12/10 06:02:37;;;;;;;10.27;3.90;;;;;;;8.90;100.00;99841.88;5061483;28;20191;-76
2023/12/10 06:05:03;;;;;;;11.17;3.93;;;;;;;8.95;100.00;99833.22;5057718;28;20320;-77
2023/12/10 06:07:28;;;;;;;12.37;3.77;;;;;;;8.94;100.00;99839.25;5058438;28;20223;-75
2023/12/10 06:09:54;;;;;;;11.97;4.20;;;;;;;8.92;100.00;99842.72;5059100;28;20192;-76
2023/12/10 06:12:19;;;;;;;7.70;3.47;;;;;;;8.98;100.00;99845.25;5057360;28;20181;-76
2023/12/10 06:14:44;;;;;;;10.83;3.90;;;;;;;8.96;100.00;99853.00;5053209;28;20339;-77
2023/12/10 06:17:10;;;;;;;9.80;4.03;;;;;;;9.00;100.00;99848.66;5057444;28;20232;-76
2023/12/10 06:19:36;;;;;;;11.33;4.10;;;;;;;8.98;100.00;99853.84;5048014;28;20186;-76
2023/12/10 06:22:02;;;;;;;10.03;3.90;;;;;;;8.96;100.00;99847.84;5057337;28;20289;-76
2023/12/10 06:24:27;;;;;;;10.13;3.63;;;;;;;8.94;100.00;99859.88;5055660;28;20712;-75
2023/12/10 06:26:52;;;;;;;12.37;3.43;;;;;;;8.94;100.00;99866.78;5059646;28;20236;-76
2023/12/10 06:29:18;;;;;;;8.70;3.43;;;;;;;8.92;100.00;99876.28;5056532;28;20216;-75
2023/12/10 06:31:43;;;;;;;7.97;3.43;;;;;;;8.93;100.00;99870.25;5054723;28;20197;-76
2023/12/10 06:34:08;;;;;;;8.83;3.20;;;;;;;8.85;100.00;99880.63;5055054;28;20241;-75
2023/12/10 06:36:35;;;;;;;11.90;3.80;;;;;;;8.85;100.00;99881.47;5053962;28;20280;-76
2023/12/10 06:39:00;;;;;;;11.90;3.97;;;;;;;8.83;100.00;99877.19;5056517;28;20182;-77
2023/12/10 06:41:25;;;;;;;10.37;3.67;;;;;;;8.79;100.00;99881.53;5053318;28;20593;-75
2023/12/10 06:43:51;;;;;;;9.10;3.40;;;;;;;8.79;100.00;99889.28;5054514;28;20236;-77
2023/12/10 06:46:17;;;;;;;10.50;3.57;;;;;;;8.79;100.00;99889.28;5055549;28;20188;-76
2023/12/10 06:48:43;;;;;;;9.47;3.70;;;;;;;8.80;100.00;99892.69;5057727;28;20481;-77
2023/12/10 06:51:08;;;;;;;10.73;3.37;;;;;;;8.77;100.00;99895.34;5052007;28;20183;-76
2023/12/10 06:53:34;;;;;;;11.60;3.80;;;;;;;8.80;100.00;99891.00;5056696;28;20764;-77
2023/12/10 06:55:59;;;;;;;11.20;3.33;;;;;;;8.77;100.00;99900.50;5052505;28;20571;-77
2023/12/10 06:58:25;;;;;;;8.63;3.60;;;;;;;8.73;100.00;99907.38;5056345;28;20191;-76
2023/12/10 07:00:50;;;;;;;9.47;3.37;;;;;;;8.69;100.00;99911.72;5055945;28;20200;-76
2023/12/10 07:03:15;;;;;;;11.77;3.57;;;;;;;8.66;100.00;99905.72;5053066;28;20212;-72
2023/12/10 07:05:41;;;;;;;12.63;3.30;;;;;;;8.74;100.00;99909.09;5058425;28;20189;-77
2023/12/10 07:08:06;;;;;;;15.87;4.03;;;;;;;8.76;100.00;99906.53;5053594;28;20838;-76
2023/12/10 07:10:31;;;;;;;9.20;3.57;;;;;;;8.74;100.00;99906.50;5054180;28;20710;-76
2023/12/10 07:12:58;;;;;;;12.40;3.67;;;;;;;8.75;100.00;99905.66;5048811;28;20783;-76
2023/12/10 07:15:23;;;;;;;11.30;3.77;;;;;;;8.75;100.00;99917.72;5046019;28;20189;-76
2023/12/10 07:17:48;;;;;;;12.07;4.10;;;;;;;8.78;100.00;99905.63;5048002;28;20186;-76
2023/12/10 07:20:14;;;;;;;13.05;3.85;;;;;;;8.75;100.00;99908.22;5048209;28;20182;-77
2023/12/10 07:22:41;;;;;;;11.87;3.93;;;;;;;8.83;100.00;99918.50;5056781;28;20266;-77
2023/12/10 07:25:06;;;;;;;12.00;3.50;;;;;;;8.81;100.00;99918.50;5053754;28;20265;-76
2023/12/10 07:27:32;;;;;;;8.03;2.73;;;;;;;8.79;100.00;99929.69;5058513;28;20316;-76
2023/12/10 07:29:58;;;;;;;7.67;2.83;;;;;;;8.81;100.00;99928.84;5057647;28;20643;-75
2023/12/10 07:32:23;;;;;;;10.03;3.23;;;;;;;8.82;100.00;99932.25;5057958;28;20183;-76
2023/12/10 07:34:49;;;;;;;11.30;3.57;;;;;;;8.84;100.00;99931.41;5059568;28;20300;-75
2023/12/10 07:37:14;;;;;;;8.07;2.80;;;;;;;8.87;100.00;99938.25;5056668;28;20724;-76
2023/12/10 07:39:39;;;;;;;12.97;4.43;;;;;;;8.94;100.00;99927.00;5056237;28;20185;-76
2023/12/10 07:42:05;;;;;;;14.20;4.37;;;;;;;8.96;100.00;99945.06;5056410;28;20210;-75
2023/12/10 07:44:30;;;;;;;11.23;3.73;;;;;;;8.99;100.00;99940.72;5066442;28;20224;-76
2023/12/10 07:46:56;;;;;;;12.60;3.63;;;;;;;9.00;100.00;99944.16;5058633;28;20197;-77
2023/12/10 07:49:22;;;;;;;11.30;3.50;;;;;;;9.03;100.00;99946.72;5058592;28;20186;-75
2023/12/10 07:51:47;;;;;;;10.63;4.17;;;;;;;9.07;100.00;99948.41;5056497;28;20189;-76
2023/12/10 07:54:13;;;;;;;12.47;4.50;;;;;;;9.16;100.00;99955.22;5051222;28;20729;-75
2023/12/10 07:56:38;;;;;;;12.33;4.00;;;;;;;9.20;100.00;99950.88;5055209;28;20186;-75
2023/12/10 07:59:03;;;;;;;7.63;3.53;;;;;;;9.17;100.00;99941.44;5062402;28;20547;-76
2023/12/10 08:01:29;;;;;;;8.13;3.70;;;;;;;9.20;100.00;99949.16;5061375;28;20248;-75
2023/12/10 08:03:54;;;;;;;10.17;3.93;;;;;;;9.26;100.00;99945.69;5060613;28;20205;-77
2023/12/10 08:06:19;;;;;;;11.10;3.87;;;;;;;9.28;100.00;99951.69;5062151;28;20210;-76
2023/12/10 08:08:45;;;;;;;10.27;3.30;;;;;;;9.25;100.00;99947.38;5059303;28;20619;-76
2023/12/10 08:11:11;;;;;;;9.77;3.00;;;;;;;9.29;100.00;99953.41;5056483;28;20757;-76
2023/12/10 08:13:37;;;;;;;10.23;3.80;;;;;;;9.30;100.00;99955.13;5054068;28;20301;-76
2023/12/10 08:16:02;;;;;;;8.67;3.73;;;;;;;9.35;100.00;99962.81;5057498;28;20201;-77
2023/12/10 08:18:27;;;;;;;8.57;3.33;;;;;;;9.33;100.00;99977.47;5065647;28;20188;-76
2023/12/10 08:20:54;;;;;;;8.93;3.83;;;;;;;9.35;100.00;99971.41;5062257;28;20213;-77
2023/12/10 08:23:19;;;;;;;12.03;4.33;;;;;;;9.35;100.00;99973.16;5062700;28;20660;-75
2023/12/10 08:25:45;;;;;;;6.90;2.80;;;;;;;9.37;100.00;99984.31;5063941;28;20181;-76
2023/12/10 08:28:10;;;;;;;11.13;3.97;;;;;;;9.40;100.00;99973.94;5059533;28;20209;-76
2023/12/10 08:30:35;;;;;;;9.30;3.47;;;;;;;9.40;100.00;99977.41;5062710;28;20182;-77
2023/12/10 08:33:02;;;;;;;9.97;3.33;;;;;;;9.39;100.00;99982.56;5062327;28;20347;-77
2023/12/10 08:35:28;;;;;;;11.83;4.33;;;;;;;9.41;100.00;99980.81;5063031;28;20288;-76
2023/12/10 08:37:53;;;;;;;9.30;3.80;;;;;;;9.44;100.00;99992.00;5059704;28;20235;-75
2023/12/10 08:40:18;;;;;;;9.73;3.87;;;;;;;9.50;100.00;99987.63;5053591;28;20201;-76
2023/12/10 08:42:44;;;;;;;9.17;3.47;;;;;;;9.49;100.00;99980.75;5061316;28;20236;-76
2023/12/10 08:45:11;;;;;;;15.17;4.57;;;;;;;9.48;100.00;99986.78;5062345;28;21760;-76
2023/12/10 08:47:36;;;;;;;11.23;3.57;;;;;;;9.43;100.00;99987.72;5058685;28;20186;-77
2023/12/10 08:50:03;;;;;;;10.70;3.90;;;;;;;9.42;100.00;99987.69;5060796;28;20259;-77
2023/12/10 08:52:28;;;;;;;11.33;4.23;;;;;;;9.41;100.00;99994.59;5057615;28;20596;-76
2023/12/10 08:54:54;;;;;;;12.00;3.40;;;;;;;9.40;100.00;99992.00;5062931;28;20263;-75
2023/12/10 08:57:24;;;;;;;10.60;3.13;;;;;;;9.37;100.00;100002.41;5059225;28;20280;-76
2023/12/10 08:59:49;;;;;;;11.03;4.00;;;;;;;9.37;100.00;100003.25;5061693;28;20194;-75
2023/12/10 09:02:14;;;;;;;8.93;3.27;;;;;;;9.38;100.00;100010.13;5052821;28;20250;-75
2023/12/10 09:04:40;;;;;;;11.20;3.80;;;;;;;9.37;100.00;100018.75;5060685;28;20206;-76
2023/12/10 09:07:05;;;;;;;11.37;3.80;;;;;;;9.42;100.00;100026.44;5058553;28;20662;-76
2023/12/10 09:09:32;;;;;;;7.83;3.27;;;;;;;9.41;100.00;100030.78;5059280;28;20289;-76
2023/12/10 09:11:58;;;;;;;10.53;3.33;;;;;;;9.47;100.00;100022.09;5058151;28;21254;-77
2023/12/10 09:14:23;;;;;;;9.57;3.60;;;;;;;9.52;100.00;100022.06;5055054;28;20224;-75
2023/12/10 09:16:49;;;;;;;10.30;3.67;;;;;;;9.51;100.00;100028.97;5050148;28;20338;-75
2023/12/10 09:19:14;;;;;;;10.17;3.80;;;;;;;9.59;100.00;100034.91;5049904;28;20217;-75
2023/12/10 09:21:39;;;;;;;9.83;3.83;;;;;;;9.71;100.00;100033.06;5050865;28;20324;-77
2023/12/10 09:24:06;;;;;;;12.50;4.37;;;;;;;9.74;100.00;100035.63;5050229;28;20229;-76
2023/12/10 09:26:31;;;;;;;8.47;3.30;;;;;;;9.79;100.00;100044.22;5051565;28;20266;-76
2023/12/10 09:28:57;;;;;;;8.87;3.33;;;;;;;9.86;100.00;100042.41;5051561;28;21036;-76
2023/12/10 09:31:22;;;;;;;13.13;4.20;;;;;;;9.91;100.00;100048.38;5060248;28;20186;-76
2023/12/10 09:33:48;;;;;;;11.70;4.47;;;;;;;9.94;100.00;100047.50;5066777;28;20300;-76
2023/12/10 09:36:16;;;;;;;11.70;3.93;;;;;;;9.95;100.00;100044.91;5061978;28;20281;-76
2023/12/10 09:38:41;;;;;;;9.87;3.70;;;;;;;9.90;100.00;100055.28;5056968;28;20205;-76
2023/12/10 09:41:07;;;;;;;9.97;3.73;;;;;;;9.91;100.00;100057.00;5051143;28;20203;-76
2023/12/10 09:43:33;;;;;;;12.90;4.47;;;;;;;9.92;100.00;100050.09;5058214;28;20206;-76
2023/12/10 09:45:59;;;;;;;11.97;4.40;;;;;;;9.86;100.00;100055.34;5059569;28;20676;-77
2023/12/10 09:48:25;;;;;;;10.87;4.20;;;;;;;9.83;100.00;100053.63;5058448;28;20197;-76
2023/12/10 09:50:50;;;;;;;9.53;3.40;;;;;;;9.80;100.00;100047.63;5056314;28;20289;-76
2023/12/10 09:53:15;;;;;;;14.87;4.57;;;;;;;9.81;100.00;100047.63;5054288;28;20216;-74
2023/12/10 09:55:41;;;;;;;9.17;3.60;;;;;;;9.81;100.00;100047.63;5056059;28;20211;-76
2023/12/10 09:58:06;;;;;;;10.97;3.70;;;;;;;9.82;100.00;100049.34;5061156;28;20229;-76
2023/12/10 10:00:32;;;;;;;9.10;3.93;;;;;;;9.84;100.00;100045.00;5055107;28;21021;-76
2023/12/10 10:03:03;;;;;;;12.57;4.37;;;;;;;9.81;100.00;100044.19;5055169;28;20324;-77
2023/12/10 10:05:29;;;;;;;10.00;3.87;;;;;;;9.78;100.00;100055.41;5050852;28;20190;-75
2023/12/10 10:07:54;;;;;;;8.50;3.40;;;;;;;9.83;100.00;100045.88;5053612;28;20197;-76
2023/12/10 10:10:25;;;;;;;10.90;4.10;;;;;;;9.81;100.00;100057.09;5054453;28;20577;-76
2023/12/10 10:12:50;;;;;;;8.10;3.20;;;;;;;9.84;100.00;100051.91;5052189;28;20187;-77
2023/12/10 10:15:28;;;;;;;9.70;3.83;;;;;;;9.91;100.00;100050.97;5059216;28;20230;-72
2023/12/10 10:17:54;;;;;;;9.37;3.50;;;;;;;9.98;100.00;100062.13;5055914;28;20232;-76
2023/12/10 10:20:21;;;;;;;7.97;3.43;;;;;;;10.02;100.00;100056.91;5058140;28;20269;-77
2023/12/10 10:22:47;;;;;;;8.63;4.00;;;;;;;10.03;100.00;100057.75;5052922;28;20211;-77
2023/12/10 10:25:12;;;;;;;9.43;4.00;;;;;;;10.03;100.00;100056.03;5065815;28;20191;-76
2023/12/10 10:27:38;;;;;;;10.60;3.87;;;;;;;10.08;100.00;100048.22;5053613;28;20186;-76
2023/12/10 10:30:04;;;;;;;13.93;4.30;;;;;;;10.10;100.00;100055.94;5052283;28;20643;-76
2023/12/10 10:32:30;;;;;;;7.87;3.33;;;;;;;10.12;100.00;100059.38;5049311;28;20189;-76
2023/12/10 10:34:55;;;;;;;8.20;3.53;;;;;;;10.18;100.00;100051.56;5048933;28;20217;-76
2023/12/10 10:37:21;;;;;;;11.47;3.87;;;;;;;10.18;100.00;100048.97;5057603;28;20662;-77
2023/12/10 10:39:49;;;;;;;11.77;3.90;;;;;;;10.15;100.00;100054.19;5057339;28;20224;-77
2023/12/10 10:42:15;;;;;;;11.43;3.47;;;;;;;10.17;100.00;100040.34;5057161;28;20271;-76
2023/12/10 10:44:41;;;;;;;9.23;3.17;;;;;;;10.22;100.00;100055.81;5073347;28;20762;-76
2023/12/10 10:47:08;;;;;;;7.80;3.50;;;;;;;10.29;100.00;100046.25;5048696;28;20201;-76
2023/12/10 10:49:35;;;;;;;8.83;3.50;;;;;;;10.37;100.00;100047.03;5057368;28;20572;-76
2023/12/10 10:52:04;;;;;;;7.83;3.43;;;;;;;10.34;100.00;100036.72;5056167;28;20193;-76
2023/12/10 10:54:31;;;;;;;7.87;3.27;;;;;;;10.29;100.00;100034.19;5056606;28;20974;-75
2023/12/10 10:56:56;;;;;;;9.80;3.67;;;;;;;10.27;100.00;100041.09;5057359;28;20314;-76
2023/12/10 10:59:33;;;;;;;8.10;3.50;;;;;;;10.24;100.00;100035.97;5059070;28;20300;-76
2023/12/10 11:02:05;;;;;;;10.80;3.67;;;;;;;10.29;100.00;100026.44;5057159;28;20214;-76
2023/12/10 11:04:34;;;;;;;7.33;3.30;;;;;;;10.31;100.00;100027.28;5051737;28;20264;-75
2023/12/10 11:07:00;;;;;;;8.00;2.93;;;;;;;10.41;100.00;100032.34;5051482;28;20197;-75
2023/12/10 11:09:27;;;;;;;8.87;3.60;;;;;;;10.55;100.00;100019.25;5055365;28;20201;-76
2023/12/10 11:11:52;;;;;;;7.07;3.20;;;;;;;10.69;100.00;100014.75;5057612;28;20190;-76
2023/12/10 11:14:20;;;;;;;8.67;3.53;;;;;;;10.79;100.00;100008.56;5053515;28;20213;-75
2023/12/10 11:16:49;;;;;;;7.73;3.13;;;;;;;10.90;100.00;100010.13;5054360;28;20198;-75